sensor_id;sensor_type;location;lat;lon;timestamp;P1;durP1;ratioP1;P2;durP2;ratioP2
2021;SDS011;1015;49.756;6.994;2023-03-01T00:00:54;14.03;;;10.77;;
2021;SDS011;1015;49.756;6.994;2023-03-01T00:03:20;14.00;;;9.80;;
2021;SDS011;1015;49.756;6.994;2023-03-01T00:05:47;12.77;;;10.53;;
2021;SDS011;1015;49.756;6.994;2023-03-01T00:08:14;13.27;;;10.30;;
2021;SDS011;1015;49.756;6.994;2023-03-01T00:10:41;15.17;;;9.87;;
2021;SDS011;1015;49.756;6.994;2023-03-01T00:13:09;15.97;;;11.20;;
2021;SDS011;1015;49.756;6.994;2023-03-01T00:15:38;13.20;;;10.37;;
2021;SDS011;1015;49.756;6.994;2023-03-01T00:18:06;15.43;;;11.17;;
2021;SDS011;1015;49.756;6.994;2023-03-01T00:20:33;13.50;;;10.43;;
2021;SDS011;1015;49.756;6.994;2023-03-01T00:23:00;15.17;;;10.17;;
2021;SDS011;1015;49.756;6.994;2023-03-01T00:25:27;12.30;;;10.87;;
2021;SDS011;1015;49.756;6.994;2023-03-01T00:27:54;12.50;;;9.60;;
2021;SDS011;1015;49.756;6.994;2023-03-01T00:30:23;13.13;;;9.30;;
2021;SDS011;1015;49.756;6.994;2023-03-01T00:32:49;13.50;;;10.63;;
2021;SDS011;1015;49.756;6.994;2023-03-01T00:35:16;15.23;;;9.70;;
2021;SDS011;1015;49.756;6.994;2023-03-01T00:37:43;16.10;;;11.70;;
2021;SDS011;1015;49.756;6.994;2023-03-01T00:40:11;11.40;;;7.70;;
2021;SDS011;1015;49.756;6.994;2023-03-01T00:42:41;12.70;;;9.07;;
2021;SDS011;1015;49.756;6.994;2023-03-01T00:45:08;15.00;;;10.90;;
2021;SDS011;1015;49.756;6.994;2023-03-01T00:47:37;14.33;;;11.10;;
2021;SDS011;1015;49.756;6.994;2023-03-01T00:50:04;17.67;;;11.83;;
2021;SDS011;1015;49.756;6.994;2023-03-01T00:52:32;14.43;;;11.80;;
2021;SDS011;1015;49.756;6.994;2023-03-01T00:54:58;14.03;;;10.40;;
2021;SDS011;1015;49.756;6.994;2023-03-01T00:57:25;16.10;;;11.80;;
2021;SDS011;1015;49.756;6.994;2023-03-01T00:59:52;12.47;;;8.53;;
2021;SDS011;1015;49.756;6.994;2023-03-01T01:02:19;15.97;;;11.87;;
2021;SDS011;1015;49.756;6.994;2023-03-01T01:04:48;16.73;;;11.40;;
2021;SDS011;1015;49.756;6.994;2023-03-01T01:07:15;15.60;;;12.07;;
2021;SDS011;1015;49.756;6.994;2023-03-01T01:09:42;11.70;;;9.73;;
2021;SDS011;1015;49.756;6.994;2023-03-01T01:12:08;14.87;;;11.47;;
2021;SDS011;1015;49.756;6.994;2023-03-01T01:14:35;17.40;;;12.83;;
2021;SDS011;1015;49.756;6.994;2023-03-01T01:17:02;18.30;;;13.00;;
2021;SDS011;1015;49.756;6.994;2023-03-01T01:19:30;13.57;;;11.17;;
2021;SDS011;1015;49.756;6.994;2023-03-01T01:21:58;17.03;;;12.50;;
2021;SDS011;1015;49.756;6.994;2023-03-01T01:24:26;17.00;;;12.40;;
2021;SDS011;1015;49.756;6.994;2023-03-01T01:26:52;14.77;;;10.77;;
2021;SDS011;1015;49.756;6.994;2023-03-01T01:29:19;19.60;;;12.83;;
2021;SDS011;1015;49.756;6.994;2023-03-01T01:31:46;15.63;;;10.83;;
2021;SDS011;1015;49.756;6.994;2023-03-01T01:34:14;19.83;;;12.97;;
2021;SDS011;1015;49.756;6.994;2023-03-01T01:36:42;17.27;;;13.67;;
2021;SDS011;1015;49.756;6.994;2023-03-01T01:39:11;15.13;;;10.40;;
2021;SDS011;1015;49.756;6.994;2023-03-01T01:41:39;18.23;;;12.50;;
2021;SDS011;1015;49.756;6.994;2023-03-01T01:44:12;18.30;;;12.20;;
2021;SDS011;1015;49.756;6.994;2023-03-01T01:46:41;17.40;;;11.90;;
2021;SDS011;1015;49.756;6.994;2023-03-01T01:49:15;14.57;;;10.93;;
2021;SDS011;1015;49.756;6.994;2023-03-01T01:51:47;16.03;;;12.50;;
2021;SDS011;1015;49.756;6.994;2023-03-01T01:54:18;18.80;;;12.43;;
2021;SDS011;1015;49.756;6.994;2023-03-01T01:56:49;18.87;;;12.73;;
2021;SDS011;1015;49.756;6.994;2023-03-01T01:59:19;17.07;;;12.20;;
2021;SDS011;1015;49.756;6.994;2023-03-01T02:01:49;19.07;;;12.60;;
2021;SDS011;1015;49.756;6.994;2023-03-01T02:04:16;17.80;;;12.17;;
2021;SDS011;1015;49.756;6.994;2023-03-01T02:06:44;17.90;;;10.90;;
2021;SDS011;1015;49.756;6.994;2023-03-01T02:09:19;18.50;;;12.60;;
2021;SDS011;1015;49.756;6.994;2023-03-01T02:11:48;14.33;;;11.00;;
2021;SDS011;1015;49.756;6.994;2023-03-01T02:14:16;20.53;;;12.47;;
2021;SDS011;1015;49.756;6.994;2023-03-01T02:16:44;17.40;;;12.00;;
2021;SDS011;1015;49.756;6.994;2023-03-01T02:19:13;20.30;;;14.10;;
2021;SDS011;1015;49.756;6.994;2023-03-01T02:21:51;19.83;;;12.23;;
2021;SDS011;1015;49.756;6.994;2023-03-01T02:24:28;17.63;;;11.37;;
2021;SDS011;1015;49.756;6.994;2023-03-01T02:27:02;21.93;;;13.63;;
2021;SDS011;1015;49.756;6.994;2023-03-01T02:29:30;17.93;;;12.50;;
2021;SDS011;1015;49.756;6.994;2023-03-01T02:31:58;20.73;;;13.80;;
2021;SDS011;1015;49.756;6.994;2023-03-01T02:34:28;18.93;;;13.77;;
2021;SDS011;1015;49.756;6.994;2023-03-01T02:36:57;21.23;;;13.70;;
2021;SDS011;1015;49.756;6.994;2023-03-01T02:39:32;20.73;;;14.30;;
2021;SDS011;1015;49.756;6.994;2023-03-01T02:42:06;17.30;;;13.50;;
2021;SDS011;1015;49.756;6.994;2023-03-01T02:44:39;19.97;;;13.67;;
2021;SDS011;1015;49.756;6.994;2023-03-01T02:47:05;21.17;;;13.90;;
2021;SDS011;1015;49.756;6.994;2023-03-01T02:49:33;18.53;;;14.37;;
2021;SDS011;1015;49.756;6.994;2023-03-01T02:52:07;18.20;;;12.73;;
2021;SDS011;1015;49.756;6.994;2023-03-01T02:54:48;19.53;;;13.57;;
2021;SDS011;1015;49.756;6.994;2023-03-01T02:57:22;21.60;;;14.70;;
2021;SDS011;1015;49.756;6.994;2023-03-01T02:59:53;20.27;;;14.30;;
2021;SDS011;1015;49.756;6.994;2023-03-01T03:02:22;19.20;;;13.97;;
2021;SDS011;1015;49.756;6.994;2023-03-01T03:05:01;18.17;;;13.47;;
2021;SDS011;1015;49.756;6.994;2023-03-01T03:07:33;19.53;;;13.20;;
2021;SDS011;1015;49.756;6.994;2023-03-01T03:10:01;19.40;;;13.60;;
2021;SDS011;1015;49.756;6.994;2023-03-01T03:12:29;19.47;;;14.13;;
2021;SDS011;1015;49.756;6.994;2023-03-01T03:14:57;18.87;;;14.03;;
2021;SDS011;1015;49.756;6.994;2023-03-01T03:17:24;18.73;;;13.93;;
2021;SDS011;1015;49.756;6.994;2023-03-01T03:19:51;21.20;;;14.67;;
2021;SDS011;1015;49.756;6.994;2023-03-01T03:22:18;21.10;;;14.57;;
2021;SDS011;1015;49.756;6.994;2023-03-01T03:24:45;19.83;;;14.03;;
2021;SDS011;1015;49.756;6.994;2023-03-01T03:27:12;22.13;;;12.67;;
2021;SDS011;1015;49.756;6.994;2023-03-01T03:29:39;19.60;;;13.60;;
2021;SDS011;1015;49.756;6.994;2023-03-01T03:32:07;20.83;;;12.23;;
2021;SDS011;1015;49.756;6.994;2023-03-01T03:34:34;20.50;;;14.20;;
2021;SDS011;1015;49.756;6.994;2023-03-01T03:37:01;20.00;;;13.80;;
2021;SDS011;1015;49.756;6.994;2023-03-01T03:39:28;19.33;;;13.73;;
2021;SDS011;1015;49.756;6.994;2023-03-01T03:42:00;18.43;;;13.37;;
2021;SDS011;1015;49.756;6.994;2023-03-01T03:44:27;16.40;;;12.50;;
2021;SDS011;1015;49.756;6.994;2023-03-01T03:46:54;23.67;;;14.87;;
2021;SDS011;1015;49.756;6.994;2023-03-01T03:49:22;22.50;;;14.33;;
2021;SDS011;1015;49.756;6.994;2023-03-01T03:51:49;19.00;;;15.27;;
2021;SDS011;1015;49.756;6.994;2023-03-01T03:54:16;18.60;;;11.87;;
2021;SDS011;1015;49.756;6.994;2023-03-01T03:56:43;19.87;;;14.17;;
2021;SDS011;1015;49.756;6.994;2023-03-01T03:59:10;20.70;;;13.53;;
2021;SDS011;1015;49.756;6.994;2023-03-01T04:01:37;22.20;;;14.73;;
2021;SDS011;1015;49.756;6.994;2023-03-01T04:04:04;18.80;;;12.03;;
2021;SDS011;1015;49.756;6.994;2023-03-01T04:06:34;20.57;;;14.37;;
2021;SDS011;1015;49.756;6.994;2023-03-01T04:09:01;21.70;;;15.43;;
2021;SDS011;1015;49.756;6.994;2023-03-01T04:11:28;19.37;;;13.50;;
2021;SDS011;1015;49.756;6.994;2023-03-01T04:13:56;21.27;;;15.33;;
2021;SDS011;1015;49.756;6.994;2023-03-01T04:16:24;19.33;;;14.43;;
2021;SDS011;1015;49.756;6.994;2023-03-01T04:18:51;19.60;;;14.03;;
2021;SDS011;1015;49.756;6.994;2023-03-01T04:21:19;24.53;;;15.33;;
2021;SDS011;1015;49.756;6.994;2023-03-01T04:23:48;24.10;;;15.33;;
2021;SDS011;1015;49.756;6.994;2023-03-01T04:26:17;21.00;;;14.93;;
2021;SDS011;1015;49.756;6.994;2023-03-01T04:28:45;22.20;;;15.10;;
2021;SDS011;1015;49.756;6.994;2023-03-01T04:31:14;19.67;;;12.87;;
2021;SDS011;1015;49.756;6.994;2023-03-01T04:33:44;24.60;;;15.20;;
2021;SDS011;1015;49.756;6.994;2023-03-01T04:36:13;23.63;;;16.40;;
2021;SDS011;1015;49.756;6.994;2023-03-01T04:38:41;23.63;;;15.67;;
2021;SDS011;1015;49.756;6.994;2023-03-01T04:41:14;21.83;;;14.10;;
2021;SDS011;1015;49.756;6.994;2023-03-01T04:43:42;22.67;;;15.97;;
2021;SDS011;1015;49.756;6.994;2023-03-01T04:46:11;21.80;;;14.40;;
2021;SDS011;1015;49.756;6.994;2023-03-01T04:48:39;25.10;;;15.77;;
2021;SDS011;1015;49.756;6.994;2023-03-01T04:51:08;23.60;;;16.20;;
2021;SDS011;1015;49.756;6.994;2023-03-01T04:53:38;24.37;;;15.23;;
2021;SDS011;1015;49.756;6.994;2023-03-01T04:56:06;22.93;;;15.70;;
2021;SDS011;1015;49.756;6.994;2023-03-01T04:58:34;25.93;;;15.03;;
2021;SDS011;1015;49.756;6.994;2023-03-01T05:01:01;22.90;;;15.60;;
2021;SDS011;1015;49.756;6.994;2023-03-01T05:03:40;20.47;;;13.97;;
2021;SDS011;1015;49.756;6.994;2023-03-01T05:06:07;22.90;;;15.33;;
2021;SDS011;1015;49.756;6.994;2023-03-01T05:08:34;22.63;;;15.47;;
2021;SDS011;1015;49.756;6.994;2023-03-01T05:11:03;23.80;;;14.80;;
2021;SDS011;1015;49.756;6.994;2023-03-01T05:13:30;23.27;;;15.30;;
2021;SDS011;1015;49.756;6.994;2023-03-01T05:16:00;22.50;;;14.67;;
2021;SDS011;1015;49.756;6.994;2023-03-01T05:18:30;25.03;;;15.57;;
2021;SDS011;1015;49.756;6.994;2023-03-01T05:21:01;21.93;;;14.50;;
2021;SDS011;1015;49.756;6.994;2023-03-01T05:23:30;22.60;;;16.03;;
2021;SDS011;1015;49.756;6.994;2023-03-01T05:25:57;23.70;;;15.80;;
2021;SDS011;1015;49.756;6.994;2023-03-01T05:28:25;27.57;;;17.70;;
2021;SDS011;1015;49.756;6.994;2023-03-01T05:30:53;24.50;;;16.50;;
2021;SDS011;1015;49.756;6.994;2023-03-01T05:33:21;25.27;;;16.20;;
2021;SDS011;1015;49.756;6.994;2023-03-01T05:35:49;23.70;;;14.80;;
2021;SDS011;1015;49.756;6.994;2023-03-01T05:38:16;25.13;;;16.13;;
2021;SDS011;1015;49.756;6.994;2023-03-01T05:40:44;24.73;;;15.97;;
2021;SDS011;1015;49.756;6.994;2023-03-01T05:43:13;29.40;;;17.70;;
2021;SDS011;1015;49.756;6.994;2023-03-01T05:45:41;26.80;;;17.83;;
2021;SDS011;1015;49.756;6.994;2023-03-01T05:48:09;25.27;;;14.60;;
2021;SDS011;1015;49.756;6.994;2023-03-01T05:50:39;23.20;;;16.03;;
2021;SDS011;1015;49.756;6.994;2023-03-01T05:53:08;25.00;;;15.10;;
2021;SDS011;1015;49.756;6.994;2023-03-01T05:55:36;25.40;;;14.27;;
2021;SDS011;1015;49.756;6.994;2023-03-01T05:58:05;24.37;;;13.40;;
2021;SDS011;1015;49.756;6.994;2023-03-01T06:00:33;20.47;;;11.47;;
2021;SDS011;1015;49.756;6.994;2023-03-01T06:03:00;23.90;;;13.70;;
2021;SDS011;1015;49.756;6.994;2023-03-01T06:05:28;23.10;;;12.80;;
2021;SDS011;1015;49.756;6.994;2023-03-01T06:07:59;22.33;;;12.80;;
2021;SDS011;1015;49.756;6.994;2023-03-01T06:10:27;16.37;;;10.23;;
2021;SDS011;1015;49.756;6.994;2023-03-01T06:12:54;22.10;;;13.27;;
2021;SDS011;1015;49.756;6.994;2023-03-01T06:15:22;20.87;;;11.60;;
2021;SDS011;1015;49.756;6.994;2023-03-01T06:17:50;21.83;;;11.83;;
2021;SDS011;1015;49.756;6.994;2023-03-01T06:20:20;23.00;;;13.07;;
2021;SDS011;1015;49.756;6.994;2023-03-01T06:22:48;22.90;;;13.53;;
2021;SDS011;1015;49.756;6.994;2023-03-01T06:25:18;24.03;;;13.87;;
2021;SDS011;1015;49.756;6.994;2023-03-01T06:27:51;23.93;;;13.57;;
2021;SDS011;1015;49.756;6.994;2023-03-01T06:30:19;22.93;;;13.70;;
2021;SDS011;1015;49.756;6.994;2023-03-01T06:32:47;24.37;;;14.40;;
2021;SDS011;1015;49.756;6.994;2023-03-01T06:35:14;25.90;;;14.70;;
2021;SDS011;1015;49.756;6.994;2023-03-01T06:37:43;25.67;;;15.13;;
2021;SDS011;1015;49.756;6.994;2023-03-01T06:40:11;26.13;;;12.33;;
2021;SDS011;1015;49.756;6.994;2023-03-01T06:42:40;24.87;;;13.00;;
2021;SDS011;1015;49.756;6.994;2023-03-01T06:45:09;27.47;;;14.97;;
2021;SDS011;1015;49.756;6.994;2023-03-01T06:47:37;26.83;;;16.03;;
2021;SDS011;1015;49.756;6.994;2023-03-01T06:50:04;17.60;;;9.20;;
2021;SDS011;1015;49.756;6.994;2023-03-01T06:52:31;28.63;;;14.20;;
2021;SDS011;1015;49.756;6.994;2023-03-01T06:54:58;21.23;;;11.63;;
2021;SDS011;1015;49.756;6.994;2023-03-01T06:57:25;29.97;;;12.00;;
2021;SDS011;1015;49.756;6.994;2023-03-01T06:59:54;25.23;;;14.23;;
2021;SDS011;1015;49.756;6.994;2023-03-01T07:02:21;26.07;;;14.43;;
2021;SDS011;1015;49.756;6.994;2023-03-01T07:04:48;27.53;;;14.03;;
2021;SDS011;1015;49.756;6.994;2023-03-01T07:07:15;28.43;;;15.63;;
2021;SDS011;1015;49.756;6.994;2023-03-01T07:09:43;19.90;;;12.77;;
2021;SDS011;1015;49.756;6.994;2023-03-01T07:12:10;23.60;;;15.80;;
2021;SDS011;1015;49.756;6.994;2023-03-01T07:14:37;26.03;;;15.33;;
2021;SDS011;1015;49.756;6.994;2023-03-01T07:17:05;27.33;;;15.50;;
2021;SDS011;1015;49.756;6.994;2023-03-01T07:19:32;28.43;;;15.47;;
2021;SDS011;1015;49.756;6.994;2023-03-01T07:21:59;24.70;;;15.20;;
2021;SDS011;1015;49.756;6.994;2023-03-01T07:24:26;22.10;;;14.33;;
2021;SDS011;1015;49.756;6.994;2023-03-01T07:26:53;16.00;;;10.03;;
2021;SDS011;1015;49.756;6.994;2023-03-01T07:29:20;20.70;;;12.93;;
2021;SDS011;1015;49.756;6.994;2023-03-01T07:31:47;24.57;;;14.63;;
2021;SDS011;1015;49.756;6.994;2023-03-01T07:34:15;26.83;;;16.50;;
2021;SDS011;1015;49.756;6.994;2023-03-01T07:36:42;22.67;;;15.30;;
2021;SDS011;1015;49.756;6.994;2023-03-01T07:39:10;21.13;;;12.30;;
2021;SDS011;1015;49.756;6.994;2023-03-01T07:41:37;13.87;;;9.87;;
2021;SDS011;1015;49.756;6.994;2023-03-01T07:44:04;25.50;;;13.20;;
2021;SDS011;1015;49.756;6.994;2023-03-01T07:46:32;24.77;;;14.33;;
2021;SDS011;1015;49.756;6.994;2023-03-01T07:48:59;24.70;;;14.87;;
2021;SDS011;1015;49.756;6.994;2023-03-01T07:51:27;26.37;;;16.20;;
2021;SDS011;1015;49.756;6.994;2023-03-01T07:53:54;24.40;;;15.27;;
2021;SDS011;1015;49.756;6.994;2023-03-01T07:56:21;29.90;;;15.87;;
2021;SDS011;1015;49.756;6.994;2023-03-01T07:58:49;22.50;;;13.53;;
2021;SDS011;1015;49.756;6.994;2023-03-01T08:01:18;27.30;;;16.77;;
2021;SDS011;1015;49.756;6.994;2023-03-01T08:03:46;25.77;;;16.57;;
2021;SDS011;1015;49.756;6.994;2023-03-01T08:06:14;26.00;;;16.50;;
2021;SDS011;1015;49.756;6.994;2023-03-01T08:08:44;27.40;;;16.27;;
2021;SDS011;1015;49.756;6.994;2023-03-01T08:11:11;27.00;;;16.57;;
2021;SDS011;1015;49.756;6.994;2023-03-01T08:13:39;27.23;;;16.23;;
2021;SDS011;1015;49.756;6.994;2023-03-01T08:16:07;27.23;;;16.63;;
2021;SDS011;1015;49.756;6.994;2023-03-01T08:18:36;25.13;;;16.67;;
2021;SDS011;1015;49.756;6.994;2023-03-01T08:21:04;25.80;;;16.40;;
2021;SDS011;1015;49.756;6.994;2023-03-01T08:23:32;24.03;;;14.63;;
2021;SDS011;1015;49.756;6.994;2023-03-01T08:26:08;22.90;;;15.50;;
2021;SDS011;1015;49.756;6.994;2023-03-01T08:28:35;27.77;;;16.80;;
2021;SDS011;1015;49.756;6.994;2023-03-01T08:31:02;23.93;;;14.87;;
2021;SDS011;1015;49.756;6.994;2023-03-01T08:33:29;24.87;;;15.37;;
2021;SDS011;1015;49.756;6.994;2023-03-01T08:36:03;24.27;;;14.40;;
2021;SDS011;1015;49.756;6.994;2023-03-01T08:38:31;22.07;;;14.37;;
2021;SDS011;1015;49.756;6.994;2023-03-01T08:40:59;23.40;;;14.80;;
2021;SDS011;1015;49.756;6.994;2023-03-01T08:43:28;22.97;;;15.50;;
2021;SDS011;1015;49.756;6.994;2023-03-01T08:45:55;26.37;;;15.80;;
2021;SDS011;1015;49.756;6.994;2023-03-01T08:48:22;24.30;;;14.10;;
2021;SDS011;1015;49.756;6.994;2023-03-01T08:50:49;24.77;;;14.63;;
2021;SDS011;1015;49.756;6.994;2023-03-01T08:53:16;18.80;;;12.13;;
2021;SDS011;1015;49.756;6.994;2023-03-01T08:55:43;21.77;;;14.03;;
2021;SDS011;1015;49.756;6.994;2023-03-01T08:58:10;16.30;;;11.30;;
2021;SDS011;1015;49.756;6.994;2023-03-01T09:00:38;19.63;;;10.67;;
2021;SDS011;1015;49.756;6.994;2023-03-01T09:03:05;21.93;;;12.30;;
2021;SDS011;1015;49.756;6.994;2023-03-01T09:05:32;23.17;;;13.53;;
2021;SDS011;1015;49.756;6.994;2023-03-01T09:08:01;23.40;;;13.43;;
2021;SDS011;1015;49.756;6.994;2023-03-01T09:10:28;21.07;;;13.13;;
2021;SDS011;1015;49.756;6.994;2023-03-01T09:12:55;21.43;;;13.57;;
2021;SDS011;1015;49.756;6.994;2023-03-01T09:15:23;20.27;;;12.63;;
2021;SDS011;1015;49.756;6.994;2023-03-01T09:17:51;25.43;;;14.10;;
2021;SDS011;1015;49.756;6.994;2023-03-01T09:20:18;19.53;;;13.17;;
2021;SDS011;1015;49.756;6.994;2023-03-01T09:22:45;28.93;;;12.90;;
2021;SDS011;1015;49.756;6.994;2023-03-01T09:25:12;24.27;;;16.20;;
2021;SDS011;1015;49.756;6.994;2023-03-01T09:27:39;17.63;;;12.83;;
2021;SDS011;1015;49.756;6.994;2023-03-01T09:30:07;21.30;;;14.13;;
2021;SDS011;1015;49.756;6.994;2023-03-01T09:32:35;23.37;;;13.80;;
2021;SDS011;1015;49.756;6.994;2023-03-01T09:35:04;18.23;;;12.10;;
2021;SDS011;1015;49.756;6.994;2023-03-01T09:37:32;18.10;;;11.73;;
2021;SDS011;1015;49.756;6.994;2023-03-01T09:40:00;18.83;;;12.00;;
2021;SDS011;1015;49.756;6.994;2023-03-01T09:42:28;21.77;;;13.00;;
2021;SDS011;1015;49.756;6.994;2023-03-01T09:44:58;24.60;;;13.03;;
2021;SDS011;1015;49.756;6.994;2023-03-01T09:47:28;15.00;;;8.80;;
2021;SDS011;1015;49.756;6.994;2023-03-01T09:49:58;13.77;;;9.37;;
2021;SDS011;1015;49.756;6.994;2023-03-01T09:52:37;24.57;;;13.50;;
2021;SDS011;1015;49.756;6.994;2023-03-01T09:55:08;20.73;;;13.37;;
2021;SDS011;1015;49.756;6.994;2023-03-01T09:57:40;19.33;;;12.20;;
2021;SDS011;1015;49.756;6.994;2023-03-01T10:00:13;25.70;;;13.50;;
2021;SDS011;1015;49.756;6.994;2023-03-01T10:02:51;23.77;;;13.97;;
2021;SDS011;1015;49.756;6.994;2023-03-01T10:05:29;18.17;;;13.07;;
2021;SDS011;1015;49.756;6.994;2023-03-01T10:08:21;20.60;;;13.13;;
2021;SDS011;1015;49.756;6.994;2023-03-01T10:10:56;23.47;;;13.77;;
2021;SDS011;1015;49.756;6.994;2023-03-01T10:13:24;21.80;;;13.07;;
2021;SDS011;1015;49.756;6.994;2023-03-01T10:15:55;20.80;;;13.67;;
2021;SDS011;1015;49.756;6.994;2023-03-01T10:18:24;19.13;;;12.20;;
2021;SDS011;1015;49.756;6.994;2023-03-01T10:20:55;23.50;;;14.10;;
2021;SDS011;1015;49.756;6.994;2023-03-01T10:23:25;28.40;;;16.43;;
2021;SDS011;1015;49.756;6.994;2023-03-01T10:25:56;23.80;;;14.50;;
2021;SDS011;1015;49.756;6.994;2023-03-01T10:28:36;23.77;;;13.33;;
2021;SDS011;1015;49.756;6.994;2023-03-01T10:31:12;27.97;;;14.93;;
2021;SDS011;1015;49.756;6.994;2023-03-01T10:33:41;13.67;;;9.60;;
2021;SDS011;1015;49.756;6.994;2023-03-01T10:36:09;20.77;;;12.20;;
2021;SDS011;1015;49.756;6.994;2023-03-01T10:38:48;21.43;;;13.90;;
2021;SDS011;1015;49.756;6.994;2023-03-01T10:41:19;21.50;;;12.10;;
2021;SDS011;1015;49.756;6.994;2023-03-01T10:43:49;15.67;;;9.47;;
2021;SDS011;1015;49.756;6.994;2023-03-01T10:46:22;21.00;;;12.40;;
2021;SDS011;1015;49.756;6.994;2023-03-01T10:49:09;20.77;;;14.00;;
2021;SDS011;1015;49.756;6.994;2023-03-01T10:51:43;22.40;;;12.70;;
2021;SDS011;1015;49.756;6.994;2023-03-01T10:54:16;18.33;;;12.20;;
2021;SDS011;1015;49.756;6.994;2023-03-01T10:56:48;24.83;;;14.37;;
2021;SDS011;1015;49.756;6.994;2023-03-01T10:59:21;20.77;;;13.17;;
2021;SDS011;1015;49.756;6.994;2023-03-01T11:02:02;17.57;;;11.30;;
2021;SDS011;1015;49.756;6.994;2023-03-01T11:04:38;18.70;;;11.40;;
2021;SDS011;1015;49.756;6.994;2023-03-01T11:07:06;18.57;;;13.00;;
2021;SDS011;1015;49.756;6.994;2023-03-01T11:09:33;25.00;;;14.20;;
2021;SDS011;1015;49.756;6.994;2023-03-01T11:12:03;21.63;;;13.20;;
2021;SDS011;1015;49.756;6.994;2023-03-01T11:14:39;24.60;;;15.63;;
2021;SDS011;1015;49.756;6.994;2023-03-01T11:17:15;20.77;;;12.47;;
2021;SDS011;1015;49.756;6.994;2023-03-01T11:19:59;21.53;;;13.23;;
2021;SDS011;1015;49.756;6.994;2023-03-01T11:22:30;20.33;;;12.60;;
2021;SDS011;1015;49.756;6.994;2023-03-01T11:24:59;21.47;;;13.00;;
2021;SDS011;1015;49.756;6.994;2023-03-01T11:27:28;19.07;;;12.73;;
2021;SDS011;1015;49.756;6.994;2023-03-01T11:29:58;18.30;;;11.93;;
2021;SDS011;1015;49.756;6.994;2023-03-01T11:32:32;20.57;;;13.10;;
2021;SDS011;1015;49.756;6.994;2023-03-01T11:35:05;19.03;;;12.63;;
2021;SDS011;1015;49.756;6.994;2023-03-01T11:37:41;19.00;;;13.20;;
2021;SDS011;1015;49.756;6.994;2023-03-01T11:40:26;18.63;;;12.83;;
2021;SDS011;1015;49.756;6.994;2023-03-01T11:43:02;25.63;;;13.63;;
2021;SDS011;1015;49.756;6.994;2023-03-01T11:45:39;21.60;;;13.90;;
2021;SDS011;1015;49.756;6.994;2023-03-01T11:51:05;18.53;;;11.23;;
2021;SDS011;1015;49.756;6.994;2023-03-01T11:53:50;20.53;;;13.87;;
2021;SDS011;1015;49.756;6.994;2023-03-01T11:56:28;20.13;;;13.30;;
2021;SDS011;1015;49.756;6.994;2023-03-01T11:59:08;20.23;;;12.93;;
2021;SDS011;1015;49.756;6.994;2023-03-01T12:02:10;16.67;;;11.53;;
2021;SDS011;1015;49.756;6.994;2023-03-01T12:05:18;22.40;;;13.80;;
2021;SDS011;1015;49.756;6.994;2023-03-01T12:07:56;19.13;;;11.33;;
2021;SDS011;1015;49.756;6.994;2023-03-01T12:10:30;20.67;;;11.70;;
2021;SDS011;1015;49.756;6.994;2023-03-01T12:16:11;22.10;;;12.90;;
2021;SDS011;1015;49.756;6.994;2023-03-01T12:18:50;17.17;;;11.60;;
2021;SDS011;1015;49.756;6.994;2023-03-01T12:21:42;18.33;;;12.53;;
2021;SDS011;1015;49.756;6.994;2023-03-01T12:27:25;19.57;;;13.37;;
2021;SDS011;1015;49.756;6.994;2023-03-01T12:30:09;14.70;;;10.00;;
2021;SDS011;1015;49.756;6.994;2023-03-01T12:32:53;15.43;;;9.70;;
2021;SDS011;1015;49.756;6.994;2023-03-01T12:35:37;18.00;;;14.00;;
2021;SDS011;1015;49.756;6.994;2023-03-01T12:38:17;18.73;;;13.33;;
2021;SDS011;1015;49.756;6.994;2023-03-01T12:43:57;23.53;;;11.97;;
2021;SDS011;1015;49.756;6.994;2023-03-01T12:46:33;16.60;;;12.50;;
2021;SDS011;1015;49.756;6.994;2023-03-01T12:49:12;8.90;;;7.30;;
2021;SDS011;1015;49.756;6.994;2023-03-01T12:51:43;20.00;;;11.20;;
2021;SDS011;1015;49.756;6.994;2023-03-01T12:54:19;14.83;;;8.97;;
2021;SDS011;1015;49.756;6.994;2023-03-01T12:56:50;11.03;;;7.37;;
2021;SDS011;1015;49.756;6.994;2023-03-01T12:59:20;20.20;;;10.37;;
2021;SDS011;1015;49.756;6.994;2023-03-01T13:01:51;17.10;;;10.60;;
2021;SDS011;1015;49.756;6.994;2023-03-01T13:04:31;17.13;;;10.20;;
2021;SDS011;1015;49.756;6.994;2023-03-01T13:07:09;11.47;;;7.57;;
2021;SDS011;1015;49.756;6.994;2023-03-01T13:09:44;19.67;;;11.80;;
2021;SDS011;1015;49.756;6.994;2023-03-01T13:18:04;14.60;;;8.30;;
2021;SDS011;1015;49.756;6.994;2023-03-01T13:21:00;14.40;;;10.00;;
2021;SDS011;1015;49.756;6.994;2023-03-01T13:23:30;16.37;;;10.60;;
2021;SDS011;1015;49.756;6.994;2023-03-01T13:26:07;15.27;;;8.10;;
2021;SDS011;1015;49.756;6.994;2023-03-01T13:28:38;15.30;;;7.57;;
2021;SDS011;1015;49.756;6.994;2023-03-01T13:37:18;15.80;;;9.80;;
2021;SDS011;1015;49.756;6.994;2023-03-01T13:43:23;15.90;;;9.97;;
2021;SDS011;1015;49.756;6.994;2023-03-01T13:45:56;19.33;;;10.63;;
2021;SDS011;1015;49.756;6.994;2023-03-01T13:48:25;18.50;;;11.53;;
2021;SDS011;1015;49.756;6.994;2023-03-01T13:50:57;18.10;;;10.93;;
2021;SDS011;1015;49.756;6.994;2023-03-01T13:53:26;18.90;;;11.30;;
2021;SDS011;1015;49.756;6.994;2023-03-01T13:55:57;19.73;;;11.50;;
2021;SDS011;1015;49.756;6.994;2023-03-01T13:58:28;15.60;;;9.87;;
2021;SDS011;1015;49.756;6.994;2023-03-01T14:00:57;19.03;;;11.03;;
2021;SDS011;1015;49.756;6.994;2023-03-01T14:03:26;12.47;;;8.90;;
2021;SDS011;1015;49.756;6.994;2023-03-01T14:06:00;18.83;;;11.10;;
2021;SDS011;1015;49.756;6.994;2023-03-01T14:08:32;18.70;;;11.50;;
2021;SDS011;1015;49.756;6.994;2023-03-01T14:14:01;18.77;;;11.40;;
2021;SDS011;1015;49.756;6.994;2023-03-01T14:16:40;14.53;;;10.00;;
2021;SDS011;1015;49.756;6.994;2023-03-01T14:19:15;17.27;;;10.37;;
2021;SDS011;1015;49.756;6.994;2023-03-01T14:21:46;18.80;;;11.83;;
2021;SDS011;1015;49.756;6.994;2023-03-01T14:24:17;17.77;;;12.10;;
2021;SDS011;1015;49.756;6.994;2023-03-01T14:26:46;17.90;;;9.97;;
2021;SDS011;1015;49.756;6.994;2023-03-01T14:29:26;19.50;;;11.10;;
2021;SDS011;1015;49.756;6.994;2023-03-01T14:32:08;19.67;;;11.53;;
2021;SDS011;1015;49.756;6.994;2023-03-01T14:34:36;14.47;;;9.27;;
2021;SDS011;1015;49.756;6.994;2023-03-01T14:37:11;19.73;;;11.00;;
2021;SDS011;1015;49.756;6.994;2023-03-01T14:39:45;21.47;;;12.87;;
2021;SDS011;1015;49.756;6.994;2023-03-01T14:42:13;21.77;;;13.13;;
2021;SDS011;1015;49.756;6.994;2023-03-01T14:44:40;16.10;;;9.27;;
2021;SDS011;1015;49.756;6.994;2023-03-01T14:47:10;17.33;;;10.60;;
2021;SDS011;1015;49.756;6.994;2023-03-01T14:49:40;19.23;;;11.50;;
2021;SDS011;1015;49.756;6.994;2023-03-01T14:52:16;14.33;;;9.83;;
2021;SDS011;1015;49.756;6.994;2023-03-01T14:54:47;15.73;;;10.13;;
2021;SDS011;1015;49.756;6.994;2023-03-01T14:57:17;13.17;;;8.87;;
2021;SDS011;1015;49.756;6.994;2023-03-01T14:59:46;16.93;;;9.57;;
2021;SDS011;1015;49.756;6.994;2023-03-01T15:02:16;13.70;;;9.30;;
2021;SDS011;1015;49.756;6.994;2023-03-01T15:04:46;17.90;;;10.40;;
2021;SDS011;1015;49.756;6.994;2023-03-01T15:07:15;15.97;;;10.30;;
2021;SDS011;1015;49.756;6.994;2023-03-01T15:09:43;15.47;;;9.57;;
2021;SDS011;1015;49.756;6.994;2023-03-01T15:12:24;16.20;;;10.13;;
2021;SDS011;1015;49.756;6.994;2023-03-01T15:15:00;13.70;;;9.37;;
2021;SDS011;1015;49.756;6.994;2023-03-01T15:17:28;17.40;;;10.60;;
2021;SDS011;1015;49.756;6.994;2023-03-01T15:19:59;13.43;;;8.47;;
2021;SDS011;1015;49.756;6.994;2023-03-01T15:22:29;17.87;;;10.20;;
2021;SDS011;1015;49.756;6.994;2023-03-01T15:24:57;15.33;;;9.43;;
2021;SDS011;1015;49.756;6.994;2023-03-01T15:27:25;13.43;;;8.73;;
2021;SDS011;1015;49.756;6.994;2023-03-01T15:29:53;9.47;;;5.60;;
2021;SDS011;1015;49.756;6.994;2023-03-01T15:32:24;7.73;;;5.50;;
2021;SDS011;1015;49.756;6.994;2023-03-01T15:34:55;17.50;;;9.27;;
2021;SDS011;1015;49.756;6.994;2023-03-01T15:37:39;12.27;;;7.30;;
2021;SDS011;1015;49.756;6.994;2023-03-01T15:40:19;12.33;;;6.27;;